Littleborough, United Kingdom
Current Conditions -  °F | °C
As of 12:50 PM on Friday 19 Dec 2014 (Local Time) from EGCC Reporting Station
Rain Showers Rain Showers  
Wind Chill: 36°   Ceiling: Unl
Heat Index: 45°   Visibility: 6mi
Dew Point: 39°   Wind: 24mph
Humidity: 81%   Direction: 270°W
Pressure: 29.91"   Gusts: NA
Location:  53.65°N, 2.1°W
Report Text: EGCC 191250Z 27021KT 9999 -SHRA FEW012 SCT030TCU 07/04 Q1013 RESHRA TEMPO SHRA
Loading
Personal Weather Stations






























Interactive Weather Map New forecast layout! Learn more

10-Day Weather Forecast

Advertisements
Track Severe Weather on mobile